sensor_id;sensor_type;location;lat;lon;timestamp;pressure;altitude;pressure_sealevel;temperature;humidity
40794;BME280;26502;51.886;15.604;2023-07-31T00:02:31;100319.88;;;16.62;67.98
40794;BME280;26502;51.886;15.604;2023-07-31T00:07:34;100328.00;;;16.44;68.54
40794;BME280;26502;51.886;15.604;2023-07-31T00:12:38;100326.04;;;16.41;68.91
40794;BME280;26502;51.886;15.604;2023-07-31T00:17:42;100323.64;;;16.42;68.85
40794;BME280;26502;51.886;15.604;2023-07-31T00:22:45;100332.02;;;16.40;69.08
40794;BME280;26502;51.886;15.604;2023-07-31T00:27:48;100329.30;;;16.43;69.25
40794;BME280;26502;51.886;15.604;2023-07-31T00:32:52;100332.92;;;16.42;69.31
40794;BME280;26502;51.886;15.604;2023-07-31T00:37:57;100329.60;;;16.38;69.43
40794;BME280;26502;51.886;15.604;2023-07-31T00:43:00;100331.60;;;16.38;69.42
40794;BME280;26502;51.886;15.604;2023-07-31T00:48:05;100327.11;;;16.26;69.43
40794;BME280;26502;51.886;15.604;2023-07-31T00:53:09;100318.83;;;16.24;69.79
40794;BME280;26502;51.886;15.604;2023-07-31T00:58:12;100321.43;;;16.23;69.65
40794;BME280;26502;51.886;15.604;2023-07-31T01:03:16;100324.67;;;16.05;69.79
40794;BME280;26502;51.886;15.604;2023-07-31T01:08:31;100312.95;;;16.00;70.14
40794;BME280;26502;51.886;15.604;2023-07-31T01:13:36;100302.38;;;16.12;70.05
40794;BME280;26502;51.886;15.604;2023-07-31T01:18:39;100304.52;;;16.03;70.02
40794;BME280;26502;51.886;15.604;2023-07-31T01:24:01;100301.73;;;15.93;69.99
40794;BME280;26502;51.886;15.604;2023-07-31T01:29:12;100296.37;;;15.87;70.55
40794;BME280;26502;51.886;15.604;2023-07-31T01:34:20;100298.32;;;15.84;70.42
40794;BME280;26502;51.886;15.604;2023-07-31T01:39:24;100301.31;;;15.70;70.46
40794;BME280;26502;51.886;15.604;2023-07-31T01:44:27;100306.55;;;15.63;70.64
40794;BME280;26502;51.886;15.604;2023-07-31T01:49:31;100305.70;;;15.56;70.68
40794;BME280;26502;51.886;15.604;2023-07-31T01:54:35;100303.23;;;15.58;71.02
40794;BME280;26502;51.886;15.604;2023-07-31T01:59:39;100301.63;;;15.55;70.79
40794;BME280;26502;51.886;15.604;2023-07-31T02:04:42;100300.23;;;15.55;70.86
40794;BME280;26502;51.886;15.604;2023-07-31T02:09:46;100295.56;;;15.61;70.90
40794;BME280;26502;51.886;15.604;2023-07-31T02:14:50;100293.98;;;15.70;71.06
40794;BME280;26502;51.886;15.604;2023-07-31T02:19:54;100285.54;;;15.73;70.89
40794;BME280;26502;51.886;15.604;2023-07-31T02:24:57;100283.71;;;15.74;70.89
40794;BME280;26502;51.886;15.604;2023-07-31T02:30:01;100286.60;;;15.55;70.84
40794;BME280;26502;51.886;15.604;2023-07-31T02:35:06;100282.00;;;15.54;70.87
40794;BME280;26502;51.886;15.604;2023-07-31T02:40:10;100277.77;;;15.41;70.85
40794;BME280;26502;51.886;15.604;2023-07-31T02:45:14;100277.94;;;15.32;71.17
40794;BME280;26502;51.886;15.604;2023-07-31T02:50:18;100283.17;;;15.31;71.35
40794;BME280;26502;51.886;15.604;2023-07-31T02:55:22;100285.15;;;15.44;71.28
40794;BME280;26502;51.886;15.604;2023-07-31T03:00:25;100282.65;;;15.37;71.50
40794;BME280;26502;51.886;15.604;2023-07-31T03:05:28;100276.64;;;15.54;71.62
40794;BME280;26502;51.886;15.604;2023-07-31T03:10:32;100272.95;;;15.53;71.23
40794;BME280;26502;51.886;15.604;2023-07-31T03:15:35;100275.80;;;15.44;71.22
40794;BME280;26502;51.886;15.604;2023-07-31T03:20:42;100272.02;;;15.36;71.33
40794;BME280;26502;51.886;15.604;2023-07-31T03:25:57;100268.27;;;15.26;71.40
40794;BME280;26502;51.886;15.604;2023-07-31T03:31:04;100266.77;;;15.27;71.58
40794;BME280;26502;51.886;15.604;2023-07-31T03:36:08;100271.70;;;15.35;71.51
40794;BME280;26502;51.886;15.604;2023-07-31T03:41:11;100269.15;;;15.30;71.47
40794;BME280;26502;51.886;15.604;2023-07-31T03:46:15;100265.83;;;15.31;71.74
40794;BME280;26502;51.886;15.604;2023-07-31T03:51:18;100269.16;;;15.48;71.81
40794;BME280;26502;51.886;15.604;2023-07-31T03:56:21;100258.30;;;15.59;71.81
40794;BME280;26502;51.886;15.604;2023-07-31T04:01:25;100251.43;;;15.75;71.88
40794;BME280;26502;51.886;15.604;2023-07-31T04:06:29;100255.69;;;15.91;71.76
40794;BME280;26502;51.886;15.604;2023-07-31T04:11:32;100257.04;;;16.01;71.69
40794;BME280;26502;51.886;15.604;2023-07-31T04:16:36;100252.77;;;16.09;71.67
40794;BME280;26502;51.886;15.604;2023-07-31T04:21:39;100253.52;;;16.14;71.51
40794;BME280;26502;51.886;15.604;2023-07-31T04:26:42;100245.18;;;16.13;71.51
40794;BME280;26502;51.886;15.604;2023-07-31T04:31:47;100240.61;;;16.20;71.59
40794;BME280;26502;51.886;15.604;2023-07-31T04:36:51;100241.66;;;16.26;71.54
40794;BME280;26502;51.886;15.604;2023-07-31T04:41:54;100238.82;;;16.32;71.59
40794;BME280;26502;51.886;15.604;2023-07-31T04:46:57;100232.82;;;16.50;71.69
40794;BME280;26502;51.886;15.604;2023-07-31T04:52:01;100226.55;;;16.64;71.57
40794;BME280;26502;51.886;15.604;2023-07-31T04:57:05;100228.15;;;16.64;71.34
40794;BME280;26502;51.886;15.604;2023-07-31T05:02:11;100229.04;;;16.61;71.32
40794;BME280;26502;51.886;15.604;2023-07-31T05:07:15;100227.48;;;16.57;71.38
40794;BME280;26502;51.886;15.604;2023-07-31T05:12:19;100224.98;;;16.57;71.52
40794;BME280;26502;51.886;15.604;2023-07-31T05:17:23;100217.94;;;16.63;71.48
40794;BME280;26502;51.886;15.604;2023-07-31T05:22:26;100215.88;;;16.65;71.39
40794;BME280;26502;51.886;15.604;2023-07-31T05:27:30;100214.73;;;16.69;71.50
40794;BME280;26502;51.886;15.604;2023-07-31T05:32:34;100211.30;;;16.72;71.52
40794;BME280;26502;51.886;15.604;2023-07-31T05:37:37;100213.55;;;16.85;71.60
40794;BME280;26502;51.886;15.604;2023-07-31T05:42:41;100209.31;;;16.89;71.54
40794;BME280;26502;51.886;15.604;2023-07-31T05:47:44;100205.73;;;17.03;71.43
40794;BME280;26502;51.886;15.604;2023-07-31T05:52:47;100203.17;;;17.06;71.02
40794;BME280;26502;51.886;15.604;2023-07-31T05:57:51;100206.19;;;17.09;70.74
40794;BME280;26502;51.886;15.604;2023-07-31T06:02:54;100209.67;;;17.14;70.52
40794;BME280;26502;51.886;15.604;2023-07-31T06:07:58;100212.99;;;17.18;70.59
40794;BME280;26502;51.886;15.604;2023-07-31T06:13:01;100210.27;;;17.23;70.43
40794;BME280;26502;51.886;15.604;2023-07-31T06:18:05;100202.41;;;17.25;70.31
40794;BME280;26502;51.886;15.604;2023-07-31T06:23:10;100198.79;;;17.31;70.18
40794;BME280;26502;51.886;15.604;2023-07-31T06:28:13;100199.05;;;17.33;70.04
40794;BME280;26502;51.886;15.604;2023-07-31T06:33:16;100197.45;;;17.38;69.92
40794;BME280;26502;51.886;15.604;2023-07-31T06:38:23;100203.92;;;17.35;69.89
40794;BME280;26502;51.886;15.604;2023-07-31T06:43:27;100202.14;;;17.35;69.75
40794;BME280;26502;51.886;15.604;2023-07-31T06:48:30;100201.97;;;17.40;69.66
40794;BME280;26502;51.886;15.604;2023-07-31T06:53:34;100205.83;;;17.55;69.60
40794;BME280;26502;51.886;15.604;2023-07-31T06:58:37;100208.69;;;17.60;69.53
40794;BME280;26502;51.886;15.604;2023-07-31T07:03:40;100211.46;;;17.56;68.94
40794;BME280;26502;51.886;15.604;2023-07-31T07:08:44;100211.52;;;17.34;69.24
40794;BME280;26502;51.886;15.604;2023-07-31T07:13:47;100209.27;;;17.30;69.37
40794;BME280;26502;51.886;15.604;2023-07-31T07:18:51;100202.90;;;17.31;69.64
40794;BME280;26502;51.886;15.604;2023-07-31T07:23:54;100206.08;;;17.40;69.85
40794;BME280;26502;51.886;15.604;2023-07-31T07:28:58;100205.32;;;17.43;69.39
40794;BME280;26502;51.886;15.604;2023-07-31T07:34:03;100203.70;;;17.43;69.68
40794;BME280;26502;51.886;15.604;2023-07-31T07:39:08;100200.83;;;17.38;69.66
40794;BME280;26502;51.886;15.604;2023-07-31T07:44:12;100192.27;;;17.37;69.80
40794;BME280;26502;51.886;15.604;2023-07-31T07:49:15;100193.52;;;17.37;69.75
40794;BME280;26502;51.886;15.604;2023-07-31T07:54:19;100186.36;;;17.40;69.83
40794;BME280;26502;51.886;15.604;2023-07-31T07:59:24;100185.94;;;17.41;70.06
40794;BME280;26502;51.886;15.604;2023-07-31T08:04:27;100192.38;;;17.39;69.92
40794;BME280;26502;51.886;15.604;2023-07-31T08:09:31;100190.12;;;17.29;70.14
40794;BME280;26502;51.886;15.604;2023-07-31T08:14:34;100188.14;;;17.29;70.25
40794;BME280;26502;51.886;15.604;2023-07-31T08:19:38;100188.63;;;17.27;70.30
40794;BME280;26502;51.886;15.604;2023-07-31T08:24:42;100190.48;;;17.24;70.33
40794;BME280;26502;51.886;15.604;2023-07-31T08:29:45;100192.64;;;17.16;70.70
40794;BME280;26502;51.886;15.604;2023-07-31T08:34:48;100194.91;;;17.03;71.11
40794;BME280;26502;51.886;15.604;2023-07-31T08:39:52;100197.01;;;16.96;71.47
40794;BME280;26502;51.886;15.604;2023-07-31T08:44:57;100197.08;;;16.78;71.82
40794;BME280;26502;51.886;15.604;2023-07-31T08:50:00;100191.30;;;16.82;72.65
40794;BME280;26502;51.886;15.604;2023-07-31T08:55:06;100188.57;;;16.91;72.68
40794;BME280;26502;51.886;15.604;2023-07-31T09:00:11;100183.97;;;16.93;72.79
40794;BME280;26502;51.886;15.604;2023-07-31T09:05:15;100185.05;;;16.90;73.32
40794;BME280;26502;51.886;15.604;2023-07-31T09:10:20;100183.19;;;16.82;73.48
40794;BME280;26502;51.886;15.604;2023-07-31T09:15:24;100185.08;;;16.81;73.84
40794;BME280;26502;51.886;15.604;2023-07-31T09:20:28;100187.90;;;16.73;74.13
40794;BME280;26502;51.886;15.604;2023-07-31T09:25:31;100188.48;;;16.78;74.47
40794;BME280;26502;51.886;15.604;2023-07-31T09:30:46;100192.60;;;16.73;74.65
40794;BME280;26502;51.886;15.604;2023-07-31T09:35:51;100189.77;;;16.75;74.76
40794;BME280;26502;51.886;15.604;2023-07-31T09:40:54;100180.35;;;16.74;75.09
40794;BME280;26502;51.886;15.604;2023-07-31T09:45:58;100172.71;;;16.87;75.49
40794;BME280;26502;51.886;15.604;2023-07-31T09:51:04;100169.39;;;17.02;75.62
40794;BME280;26502;51.886;15.604;2023-07-31T09:56:08;100163.79;;;17.29;76.01
40794;BME280;26502;51.886;15.604;2023-07-31T10:01:12;100161.93;;;17.58;75.84
40794;BME280;26502;51.886;15.604;2023-07-31T10:06:16;100160.08;;;17.69;75.46
40794;BME280;26502;51.886;15.604;2023-07-31T10:11:22;100155.81;;;17.66;74.80
40794;BME280;26502;51.886;15.604;2023-07-31T10:16:28;100147.28;;;17.62;75.14
40794;BME280;26502;51.886;15.604;2023-07-31T10:21:32;100140.84;;;17.77;75.27
40794;BME280;26502;51.886;15.604;2023-07-31T10:26:38;100132.70;;;17.96;75.23
40794;BME280;26502;51.886;15.604;2023-07-31T10:31:42;100124.86;;;18.15;74.91
40794;BME280;26502;51.886;15.604;2023-07-31T10:36:45;100116.92;;;18.16;74.60
40794;BME280;26502;51.886;15.604;2023-07-31T10:41:49;100114.41;;;18.15;74.44
40794;BME280;26502;51.886;15.604;2023-07-31T10:46:55;100113.00;;;18.37;74.60
40794;BME280;26502;51.886;15.604;2023-07-31T10:51:59;100104.44;;;18.58;74.31
40794;BME280;26502;51.886;15.604;2023-07-31T10:57:02;100096.54;;;18.92;74.26
40794;BME280;26502;51.886;15.604;2023-07-31T11:02:26;100095.23;;;19.30;73.67
40794;BME280;26502;51.886;15.604;2023-07-31T11:07:47;100089.27;;;19.46;72.41
40794;BME280;26502;51.886;15.604;2023-07-31T11:12:50;100077.19;;;19.62;72.28
40794;BME280;26502;51.886;15.604;2023-07-31T11:17:54;100069.98;;;20.01;70.49
40794;BME280;26502;51.886;15.604;2023-07-31T11:23:01;100064.64;;;20.26;70.52
40794;BME280;26502;51.886;15.604;2023-07-31T11:28:09;100065.77;;;20.56;69.84
40794;BME280;26502;51.886;15.604;2023-07-31T11:33:12;100058.86;;;20.65;68.84
40794;BME280;26502;51.886;15.604;2023-07-31T11:38:22;100051.63;;;20.72;68.25
40794;BME280;26502;51.886;15.604;2023-07-31T11:43:27;100045.37;;;20.82;67.29
40794;BME280;26502;51.886;15.604;2023-07-31T11:48:32;100035.55;;;21.31;66.07
40794;BME280;26502;51.886;15.604;2023-07-31T11:53:40;100040.86;;;21.37;65.16
40794;BME280;26502;51.886;15.604;2023-07-31T11:58:46;100038.38;;;21.30;64.72
40794;BME280;26502;51.886;15.604;2023-07-31T12:03:51;100039.44;;;21.28;64.48
40794;BME280;26502;51.886;15.604;2023-07-31T12:09:01;100035.36;;;21.32;63.59
40794;BME280;26502;51.886;15.604;2023-07-31T12:14:05;100028.40;;;21.61;63.11
40794;BME280;26502;51.886;15.604;2023-07-31T12:19:08;100012.47;;;22.18;62.40
40794;BME280;26502;51.886;15.604;2023-07-31T12:24:12;100012.86;;;22.30;59.20
40794;BME280;26502;51.886;15.604;2023-07-31T12:29:15;100006.90;;;22.00;57.73
40794;BME280;26502;51.886;15.604;2023-07-31T12:34:20;100010.95;;;22.04;58.21
40794;BME280;26502;51.886;15.604;2023-07-31T12:39:24;99998.77;;;22.59;58.48
40794;BME280;26502;51.886;15.604;2023-07-31T12:44:27;99989.54;;;22.88;56.32
40794;BME280;26502;51.886;15.604;2023-07-31T12:49:31;99995.92;;;22.46;54.37
40794;BME280;26502;51.886;15.604;2023-07-31T12:54:34;99982.98;;;22.28;54.18
40794;BME280;26502;51.886;15.604;2023-07-31T12:59:38;99980.40;;;22.24;55.05
40794;BME280;26502;51.886;15.604;2023-07-31T13:04:42;99976.27;;;22.50;54.84
40794;BME280;26502;51.886;15.604;2023-07-31T13:09:45;99969.52;;;22.62;54.42
40794;BME280;26502;51.886;15.604;2023-07-31T13:14:48;99965.08;;;23.35;54.41
40794;BME280;26502;51.886;15.604;2023-07-31T13:19:52;99960.16;;;23.85;53.01
40794;BME280;26502;51.886;15.604;2023-07-31T13:24:55;99967.98;;;23.71;52.10
40794;BME280;26502;51.886;15.604;2023-07-31T13:29:58;99965.30;;;23.70;51.75
40794;BME280;26502;51.886;15.604;2023-07-31T13:35:02;99971.39;;;23.41;51.27
40794;BME280;26502;51.886;15.604;2023-07-31T13:40:07;99961.02;;;23.80;52.27
40794;BME280;26502;51.886;15.604;2023-07-31T13:45:11;99960.98;;;24.24;51.15
40794;BME280;26502;51.886;15.604;2023-07-31T13:50:14;99954.15;;;24.11;50.86
40794;BME280;26502;51.886;15.604;2023-07-31T13:55:18;99955.05;;;23.67;50.68
40794;BME280;26502;51.886;15.604;2023-07-31T14:00:22;99954.52;;;23.05;51.09
40794;BME280;26502;51.886;15.604;2023-07-31T14:05:26;99952.83;;;23.21;51.00
40794;BME280;26502;51.886;15.604;2023-07-31T14:10:29;99954.23;;;23.03;51.24
40794;BME280;26502;51.886;15.604;2023-07-31T14:15:32;99953.13;;;22.95;52.00
40794;BME280;26502;51.886;15.604;2023-07-31T14:20:38;99949.19;;;23.06;52.27
40794;BME280;26502;51.886;15.604;2023-07-31T14:25:41;99951.94;;;22.89;52.10
40794;BME280;26502;51.886;15.604;2023-07-31T14:30:45;99946.89;;;22.58;52.20
40794;BME280;26502;51.886;15.604;2023-07-31T14:35:48;99950.58;;;22.42;52.32
40794;BME280;26502;51.886;15.604;2023-07-31T14:40:52;99945.83;;;22.29;52.57
40794;BME280;26502;51.886;15.604;2023-07-31T14:45:55;99943.54;;;22.53;51.94
40794;BME280;26502;51.886;15.604;2023-07-31T14:51:01;99932.92;;;22.72;52.27
40794;BME280;26502;51.886;15.604;2023-07-31T14:56:05;99928.33;;;23.07;51.33
40794;BME280;26502;51.886;15.604;2023-07-31T15:01:08;99919.88;;;22.97;51.11
40794;BME280;26502;51.886;15.604;2023-07-31T15:06:12;99909.19;;;23.00;51.02
40794;BME280;26502;51.886;15.604;2023-07-31T15:11:15;99913.17;;;22.87;50.84
40794;BME280;26502;51.886;15.604;2023-07-31T15:16:19;99907.10;;;23.20;51.24
40794;BME280;26502;51.886;15.604;2023-07-31T15:21:22;99900.10;;;24.00;51.29
40794;BME280;26502;51.886;15.604;2023-07-31T15:26:26;99902.34;;;24.34;50.84
40794;BME280;26502;51.886;15.604;2023-07-31T15:31:29;99902.42;;;24.10;49.77
40794;BME280;26502;51.886;15.604;2023-07-31T15:36:33;99895.16;;;23.39;49.88
40794;BME280;26502;51.886;15.604;2023-07-31T15:41:37;99887.98;;;23.10;50.47
40794;BME280;26502;51.886;15.604;2023-07-31T15:46:41;99884.48;;;23.05;50.74
40794;BME280;26502;51.886;15.604;2023-07-31T15:51:44;99873.38;;;23.00;50.73
40794;BME280;26502;51.886;15.604;2023-07-31T15:56:47;99872.22;;;23.23;50.59
40794;BME280;26502;51.886;15.604;2023-07-31T16:01:50;99870.86;;;23.05;50.73
40794;BME280;26502;51.886;15.604;2023-07-31T16:06:54;99870.69;;;22.92;50.88
40794;BME280;26502;51.886;15.604;2023-07-31T16:11:57;99877.34;;;22.83;51.10
40794;BME280;26502;51.886;15.604;2023-07-31T16:17:00;99876.08;;;22.72;51.39
40794;BME280;26502;51.886;15.604;2023-07-31T16:22:06;99876.73;;;22.69;51.64
40794;BME280;26502;51.886;15.604;2023-07-31T16:27:09;99875.79;;;22.60;52.06
40794;BME280;26502;51.886;15.604;2023-07-31T16:32:13;99868.48;;;22.49;51.78
40794;BME280;26502;51.886;15.604;2023-07-31T16:37:17;99861.27;;;22.51;52.40
40794;BME280;26502;51.886;15.604;2023-07-31T16:42:21;99858.67;;;22.48;52.35
40794;BME280;26502;51.886;15.604;2023-07-31T16:47:25;99858.06;;;22.39;52.46
40794;BME280;26502;51.886;15.604;2023-07-31T16:52:28;99854.42;;;22.34;52.79
40794;BME280;26502;51.886;15.604;2023-07-31T16:57:31;99853.39;;;22.37;52.84
40794;BME280;26502;51.886;15.604;2023-07-31T17:02:35;99850.98;;;22.33;53.12
40794;BME280;26502;51.886;15.604;2023-07-31T17:07:38;99847.14;;;22.32;53.18
40794;BME280;26502;51.886;15.604;2023-07-31T17:12:42;99850.16;;;22.37;53.50
40794;BME280;26502;51.886;15.604;2023-07-31T17:17:45;99850.42;;;22.39;53.62
40794;BME280;26502;51.886;15.604;2023-07-31T17:22:48;99857.19;;;22.37;53.60
40794;BME280;26502;51.886;15.604;2023-07-31T17:27:52;99861.23;;;22.34;53.61
40794;BME280;26502;51.886;15.604;2023-07-31T17:32:55;99865.14;;;22.31;53.75
40794;BME280;26502;51.886;15.604;2023-07-31T17:37:59;99866.80;;;22.28;53.95
40794;BME280;26502;51.886;15.604;2023-07-31T17:43:02;99855.52;;;22.27;54.62
40794;BME280;26502;51.886;15.604;2023-07-31T17:48:05;99850.23;;;22.22;54.63
40794;BME280;26502;51.886;15.604;2023-07-31T17:53:11;99840.80;;;22.18;54.95
40794;BME280;26502;51.886;15.604;2023-07-31T17:58:14;99833.17;;;22.17;55.27
40794;BME280;26502;51.886;15.604;2023-07-31T18:03:18;99826.71;;;22.13;55.39
40794;BME280;26502;51.886;15.604;2023-07-31T18:08:21;99822.80;;;22.06;55.68
40794;BME280;26502;51.886;15.604;2023-07-31T18:13:25;99813.89;;;21.97;56.03
40794;BME280;26502;51.886;15.604;2023-07-31T18:18:28;99810.24;;;21.89;56.05
40794;BME280;26502;51.886;15.604;2023-07-31T18:23:32;99808.68;;;21.83;56.64
40794;BME280;26502;51.886;15.604;2023-07-31T18:28:35;99808.58;;;21.75;56.34
40794;BME280;26502;51.886;15.604;2023-07-31T18:33:38;99814.19;;;21.61;56.16
40794;BME280;26502;51.886;15.604;2023-07-31T18:38:42;99808.81;;;21.46;56.39
40794;BME280;26502;51.886;15.604;2023-07-31T18:43:45;99804.41;;;21.31;56.60
40794;BME280;26502;51.886;15.604;2023-07-31T18:48:49;99796.98;;;21.21;56.70
40794;BME280;26502;51.886;15.604;2023-07-31T18:53:52;99789.30;;;21.12;56.94
40794;BME280;26502;51.886;15.604;2023-07-31T18:58:55;99790.44;;;21.06;57.07
40794;BME280;26502;51.886;15.604;2023-07-31T19:03:59;99785.48;;;20.99;57.29
40794;BME280;26502;51.886;15.604;2023-07-31T19:09:03;99780.98;;;20.97;57.29
40794;BME280;26502;51.886;15.604;2023-07-31T19:14:06;99783.13;;;21.03;57.00
40794;BME280;26502;51.886;15.604;2023-07-31T19:19:10;99791.05;;;21.07;56.91
40794;BME280;26502;51.886;15.604;2023-07-31T19:24:13;99798.71;;;21.00;56.80
40794;BME280;26502;51.886;15.604;2023-07-31T19:29:17;99789.72;;;20.98;56.94
40794;BME280;26502;51.886;15.604;2023-07-31T19:34:20;99788.23;;;20.92;56.93
40794;BME280;26502;51.886;15.604;2023-07-31T19:39:23;99782.64;;;20.90;56.94
40794;BME280;26502;51.886;15.604;2023-07-31T19:44:27;99784.16;;;20.85;56.78
40794;BME280;26502;51.886;15.604;2023-07-31T19:49:30;99786.48;;;20.84;56.96
40794;BME280;26502;51.886;15.604;2023-07-31T19:54:33;99784.09;;;20.84;57.09
40794;BME280;26502;51.886;15.604;2023-07-31T19:59:37;99776.91;;;20.88;56.99
40794;BME280;26502;51.886;15.604;2023-07-31T20:04:40;99782.73;;;20.89;57.17
40794;BME280;26502;51.886;15.604;2023-07-31T20:09:44;99777.13;;;20.91;57.11
40794;BME280;26502;51.886;15.604;2023-07-31T20:14:47;99770.14;;;20.93;57.33
40794;BME280;26502;51.886;15.604;2023-07-31T20:19:52;99762.58;;;20.95;57.44
40794;BME280;26502;51.886;15.604;2023-07-31T20:24:56;99757.16;;;20.95;57.70
40794;BME280;26502;51.886;15.604;2023-07-31T20:29:59;99755.05;;;20.94;57.97
40794;BME280;26502;51.886;15.604;2023-07-31T20:35:03;99750.98;;;20.93;58.15
40794;BME280;26502;51.886;15.604;2023-07-31T20:40:09;99742.89;;;20.89;58.02
40794;BME280;26502;51.886;15.604;2023-07-31T20:45:13;99736.92;;;20.85;58.28
40794;BME280;26502;51.886;15.604;2023-07-31T20:50:17;99728.98;;;20.81;58.29
40794;BME280;26502;51.886;15.604;2023-07-31T20:55:20;99719.30;;;20.76;58.41
40794;BME280;26502;51.886;15.604;2023-07-31T21:00:23;99709.13;;;20.71;58.39
40794;BME280;26502;51.886;15.604;2023-07-31T21:05:27;99706.07;;;20.69;58.82
40794;BME280;26502;51.886;15.604;2023-07-31T21:10:30;99697.61;;;20.64;58.72
40794;BME280;26502;51.886;15.604;2023-07-31T21:15:33;99688.73;;;20.59;58.92
40794;BME280;26502;51.886;15.604;2023-07-31T21:20:37;99679.02;;;20.52;59.34
40794;BME280;26502;51.886;15.604;2023-07-31T21:25:41;99678.45;;;20.49;59.64
40794;BME280;26502;51.886;15.604;2023-07-31T21:30:44;99672.02;;;20.44;59.65
40794;BME280;26502;51.886;15.604;2023-07-31T21:35:47;99665.72;;;20.40;59.44
40794;BME280;26502;51.886;15.604;2023-07-31T21:40:50;99660.08;;;20.38;59.69
40794;BME280;26502;51.886;15.604;2023-07-31T21:45:54;99653.05;;;20.38;59.93
40794;BME280;26502;51.886;15.604;2023-07-31T21:50:57;99648.85;;;20.33;60.23
40794;BME280;26502;51.886;15.604;2023-07-31T21:56:01;99646.95;;;20.26;60.60
40794;BME280;26502;51.886;15.604;2023-07-31T22:01:04;99637.63;;;20.28;60.88
40794;BME280;26502;51.886;15.604;2023-07-31T22:06:09;99635.08;;;20.26;60.52
40794;BME280;26502;51.886;15.604;2023-07-31T22:11:12;99632.52;;;20.26;60.35
40794;BME280;26502;51.886;15.604;2023-07-31T22:16:16;99631.54;;;20.20;60.32
40794;BME280;26502;51.886;15.604;2023-07-31T22:21:20;99629.29;;;20.19;60.52
40794;BME280;26502;51.886;15.604;2023-07-31T22:26:23;99625.80;;;20.16;60.76
40794;BME280;26502;51.886;15.604;2023-07-31T22:31:26;99620.67;;;20.11;61.15
40794;BME280;26502;51.886;15.604;2023-07-31T22:36:30;99615.36;;;20.06;61.12
40794;BME280;26502;51.886;15.604;2023-07-31T22:41:33;99599.71;;;19.99;61.19
40794;BME280;26502;51.886;15.604;2023-07-31T22:46:36;99597.05;;;19.95;60.99
40794;BME280;26502;51.886;15.604;2023-07-31T22:51:40;99587.77;;;19.90;61.14
40794;BME280;26502;51.886;15.604;2023-07-31T22:56:43;99589.23;;;19.88;61.21
40794;BME280;26502;51.886;15.604;2023-07-31T23:01:47;99590.06;;;19.91;61.38
40794;BME280;26502;51.886;15.604;2023-07-31T23:06:50;99594.52;;;19.89;61.41
40794;BME280;26502;51.886;15.604;2023-07-31T23:11:56;99583.36;;;19.85;61.53
40794;BME280;26502;51.886;15.604;2023-07-31T23:16:59;99582.65;;;19.80;61.90
40794;BME280;26502;51.886;15.604;2023-07-31T23:22:03;99577.16;;;19.77;62.20
40794;BME280;26502;51.886;15.604;2023-07-31T23:27:06;99573.42;;;19.77;62.51
40794;BME280;26502;51.886;15.604;2023-07-31T23:32:10;99563.27;;;19.74;62.35
40794;BME280;26502;51.886;15.604;2023-07-31T23:37:13;99558.05;;;19.73;62.68
40794;BME280;26502;51.886;15.604;2023-07-31T23:42:17;99549.48;;;19.73;62.73
40794;BME280;26502;51.886;15.604;2023-07-31T23:47:20;99542.02;;;19.69;62.78
40794;BME280;26502;51.886;15.604;2023-07-31T23:52:24;99532.00;;;19.64;62.84
40794;BME280;26502;51.886;15.604;2023-07-31T23:57:27;99528.02;;;19.59;62.96
